createdAt,value
2022-09-25T00:00:30.042Z,14.81
2022-09-25T00:01:30.071Z,14.90
2022-09-25T00:02:29.993Z,14.81
2022-09-25T00:03:29.916Z,14.78
2022-09-25T00:04:29.865Z,14.85
2022-09-25T00:05:29.815Z,14.81
2022-09-25T00:06:29.845Z,14.78
2022-09-25T00:07:29.739Z,14.85
2022-09-25T00:08:29.721Z,14.79
2022-09-25T00:09:29.670Z,14.77
2022-09-25T00:10:29.620Z,14.77
2022-09-25T00:11:29.562Z,14.77
2022-09-25T00:12:29.512Z,14.78
2022-09-25T00:13:29.463Z,14.79
2022-09-25T00:14:29.420Z,14.86
2022-09-25T00:15:29.372Z,14.79
2022-09-25T00:16:29.476Z,14.71
2022-09-25T00:17:29.284Z,14.73
2022-09-25T00:18:29.248Z,14.74
2022-09-25T00:19:29.197Z,14.74
2022-09-25T00:20:29.156Z,14.74
2022-09-25T00:21:29.107Z,14.74
2022-09-25T00:22:29.064Z,14.82
2022-09-25T00:23:29.018Z,14.78
2022-09-25T00:24:28.976Z,14.79
2022-09-25T00:25:28.937Z,14.73
2022-09-25T00:26:28.906Z,14.82
2022-09-25T00:27:28.847Z,14.78
2022-09-25T00:28:28.800Z,14.79
2022-09-25T00:29:28.752Z,14.74
2022-09-25T00:30:28.781Z,14.79
2022-09-25T00:31:28.680Z,14.79
2022-09-25T00:32:28.623Z,14.74
2022-09-25T00:33:28.577Z,14.73
2022-09-25T00:34:28.539Z,14.86
2022-09-25T00:35:28.494Z,14.77
2022-09-25T00:36:28.450Z,14.73
2022-09-25T00:38:28.354Z,14.82
2022-09-25T00:39:28.310Z,14.79
2022-09-25T00:40:28.301Z,14.79
2022-09-25T00:41:28.223Z,14.79
2022-09-25T00:42:28.198Z,14.78
2022-09-25T00:43:28.135Z,14.78
2022-09-25T00:44:28.088Z,14.79
2022-09-25T00:45:28.047Z,14.78
2022-09-25T00:46:28.131Z,14.78
2022-09-25T00:47:27.954Z,14.78
2022-09-25T00:48:27.911Z,14.82
2022-09-25T00:49:27.866Z,14.77
2022-09-25T00:50:27.830Z,14.81
2022-09-25T00:51:27.794Z,14.82
2022-09-25T00:52:27.730Z,14.81
2022-09-25T00:53:27.691Z,14.79
2022-09-25T00:54:27.645Z,14.68
2022-09-25T00:55:27.598Z,14.71
2022-09-25T00:56:27.570Z,14.74
2022-09-25T00:57:27.515Z,14.78
2022-09-25T00:58:27.485Z,14.79
2022-09-25T00:59:27.426Z,14.77
2022-09-25T01:00:27.375Z,14.77
2022-09-25T01:01:27.442Z,14.78
2022-09-25T01:02:27.340Z,14.85
2022-09-25T01:03:27.252Z,14.73
2022-09-25T01:04:27.203Z,14.68
2022-09-25T01:05:27.155Z,14.62
2022-09-25T01:06:27.110Z,14.77
2022-09-25T01:07:27.066Z,14.62
2022-09-25T01:08:27.021Z,14.63
2022-09-25T01:09:26.983Z,14.62
2022-09-25T01:10:26.930Z,14.68
2022-09-25T01:11:26.892Z,14.61
2022-09-25T01:12:26.847Z,14.68
2022-09-25T01:13:26.800Z,14.70
2022-09-25T01:14:26.770Z,14.63
2022-09-25T01:15:26.714Z,14.61
2022-09-25T01:16:26.751Z,14.63
2022-09-25T01:17:26.626Z,14.61
2022-09-25T01:19:26.533Z,14.68
2022-09-25T01:20:26.490Z,14.68
2022-09-25T01:21:26.445Z,14.67
2022-09-25T01:22:26.406Z,14.59
2022-09-25T01:23:26.364Z,14.59
2022-09-25T01:24:26.312Z,14.59
2022-09-25T01:25:26.273Z,14.63
2022-09-25T01:26:26.226Z,14.58
2022-09-25T01:27:26.176Z,14.52
2022-09-25T01:28:26.135Z,14.56
2022-09-25T01:29:26.103Z,14.53
2022-09-25T01:30:26.112Z,14.63
2022-09-25T01:31:26.101Z,14.52
2022-09-25T01:32:25.957Z,14.51
2022-09-25T01:33:25.909Z,14.63
2022-09-25T01:34:25.870Z,14.53
2022-09-25T01:35:25.825Z,14.62
2022-09-25T01:36:25.783Z,14.66
2022-09-25T01:37:25.735Z,14.66
2022-09-25T01:38:25.695Z,14.51
2022-09-25T01:39:25.645Z,14.58
2022-09-25T01:40:25.719Z,14.58
2022-09-25T01:41:25.555Z,14.56
2022-09-25T01:42:25.511Z,14.56
2022-09-25T01:43:25.466Z,14.62
2022-09-25T01:44:25.426Z,14.52
2022-09-25T01:45:25.374Z,14.56
2022-09-25T01:47:25.310Z,14.38
2022-09-25T01:48:25.245Z,14.45
2022-09-25T01:49:25.201Z,14.52
2022-09-25T01:50:25.154Z,14.53
2022-09-25T01:51:25.116Z,14.49
2022-09-25T01:52:25.069Z,14.52
2022-09-25T01:53:25.022Z,14.56
2022-09-25T01:54:25.178Z,14.41
2022-09-25T01:55:24.935Z,14.43
2022-09-25T01:56:24.890Z,14.48
2022-09-25T01:57:24.847Z,14.56
2022-09-25T01:58:24.801Z,14.44
2022-09-25T01:59:24.754Z,14.52
2022-09-25T02:00:24.714Z,14.51
2022-09-25T02:01:24.691Z,14.49
2022-09-25T02:02:24.731Z,14.52
2022-09-25T02:03:24.598Z,14.51
2022-09-25T02:04:24.533Z,14.52
2022-09-25T02:05:24.487Z,14.43
2022-09-25T02:06:24.444Z,14.45
2022-09-25T02:07:24.400Z,14.51
2022-09-25T02:08:24.355Z,14.49
2022-09-25T02:09:24.309Z,14.48
2022-09-25T02:10:24.265Z,14.48
2022-09-25T02:11:24.423Z,14.48
2022-09-25T02:12:24.176Z,14.43
2022-09-25T02:13:24.133Z,14.55
2022-09-25T02:14:24.086Z,14.43
2022-09-25T02:15:24.045Z,14.38
2022-09-25T02:16:24.068Z,14.45
2022-09-25T02:17:23.954Z,14.41
2022-09-25T02:18:23.910Z,14.43
2022-09-25T02:19:23.885Z,14.40
2022-09-25T02:20:23.823Z,14.36
2022-09-25T02:21:23.778Z,14.36
2022-09-25T02:22:23.731Z,14.34
2022-09-25T02:23:23.702Z,14.38
2022-09-25T02:24:23.639Z,14.34
2022-09-25T02:25:23.601Z,14.36
2022-09-25T02:26:23.551Z,14.36
2022-09-25T02:27:23.509Z,14.33
2022-09-25T02:28:23.469Z,14.37
2022-09-25T02:29:23.419Z,14.38
2022-09-25T02:30:23.452Z,14.31
2022-09-25T02:31:23.334Z,14.28
2022-09-25T02:32:23.288Z,14.28
2022-09-25T02:33:23.245Z,14.26
2022-09-25T02:34:23.195Z,14.31
2022-09-25T02:35:23.174Z,14.33
2022-09-25T02:36:23.107Z,14.30
2022-09-25T02:37:23.063Z,14.34
2022-09-25T02:38:23.018Z,14.28
2022-09-25T02:39:22.987Z,14.30
2022-09-25T02:40:22.981Z,14.23
2022-09-25T02:41:22.886Z,14.23
2022-09-25T02:42:22.841Z,14.31
2022-09-25T02:43:22.801Z,14.28
2022-09-25T02:44:22.749Z,14.26
2022-09-25T02:45:22.707Z,14.28
2022-09-25T02:46:22.758Z,14.28
2022-09-25T02:47:22.623Z,14.19
2022-09-25T02:48:22.574Z,14.28
2022-09-25T02:49:22.532Z,14.26
2022-09-25T02:50:22.489Z,14.28
2022-09-25T02:51:22.468Z,14.23
2022-09-25T02:52:22.395Z,14.25
2022-09-25T02:53:22.355Z,14.20
2022-09-25T02:54:22.303Z,14.22
2022-09-25T02:55:22.267Z,14.19
2022-09-25T02:56:22.227Z,14.20
2022-09-25T02:57:22.192Z,14.25
2022-09-25T02:58:22.125Z,14.20
2022-09-25T02:59:22.085Z,14.23
2022-09-25T03:00:22.037Z,14.23
2022-09-25T03:01:22.285Z,14.18
2022-09-25T03:02:22.083Z,14.20
2022-09-25T03:03:21.904Z,14.20
2022-09-25T03:04:21.857Z,14.22
2022-09-25T03:05:21.812Z,14.22
2022-09-25T03:06:21.771Z,14.20
2022-09-25T03:07:21.840Z,14.13
2022-09-25T03:08:21.685Z,14.13
2022-09-25T03:09:21.634Z,14.16
2022-09-25T03:10:21.590Z,14.18
2022-09-25T03:11:21.545Z,14.18
2022-09-25T03:12:21.500Z,14.05
2022-09-25T03:13:21.456Z,14.16
2022-09-25T03:14:21.409Z,14.07
2022-09-25T03:15:21.366Z,14.03
2022-09-25T03:16:21.379Z,14.04
2022-09-25T03:17:21.278Z,14.05
2022-09-25T03:18:21.234Z,14.08
2022-09-25T03:19:21.192Z,14.11
2022-09-25T03:20:21.148Z,14.15
2022-09-25T03:21:21.104Z,14.03
2022-09-25T03:22:21.053Z,14.11
2022-09-25T03:23:21.125Z,14.03
2022-09-25T03:24:20.964Z,14.08
2022-09-25T03:25:20.919Z,14.05
2022-09-25T03:26:20.875Z,14.03
2022-09-25T03:27:20.830Z,14.03
2022-09-25T03:28:20.786Z,13.87
2022-09-25T03:29:20.739Z,14.03
2022-09-25T03:30:20.702Z,13.94
2022-09-25T03:31:20.707Z,13.87
2022-09-25T03:32:20.607Z,13.97
2022-09-25T03:33:20.561Z,13.97
2022-09-25T03:34:20.517Z,13.87
2022-09-25T03:35:20.471Z,13.87
2022-09-25T03:36:20.428Z,13.86
2022-09-25T03:37:20.381Z,13.87
2022-09-25T03:38:20.339Z,13.86
2022-09-25T03:39:20.316Z,13.85
2022-09-25T03:40:20.388Z,13.86
2022-09-25T03:41:20.225Z,13.83
2022-09-25T03:42:20.162Z,13.80
2022-09-25T03:43:20.118Z,13.78
2022-09-25T03:44:20.073Z,13.79
2022-09-25T03:45:20.026Z,13.79
2022-09-25T03:46:20.045Z,13.80
2022-09-25T03:47:19.939Z,13.83
2022-09-25T03:48:19.902Z,13.79
2022-09-25T03:49:19.844Z,13.82
2022-09-25T03:50:19.804Z,13.75
2022-09-25T03:51:19.757Z,13.70
2022-09-25T03:52:19.712Z,13.73
2022-09-25T03:53:19.666Z,13.68
2022-09-25T03:54:19.623Z,13.70
2022-09-25T03:55:19.597Z,13.76
2022-09-25T03:56:19.533Z,13.71
2022-09-25T03:57:19.484Z,13.68
2022-09-25T03:58:19.441Z,13.71
2022-09-25T03:59:19.402Z,13.71
2022-09-25T04:00:19.352Z,13.65
2022-09-25T04:01:19.477Z,13.75
2022-09-25T04:02:19.328Z,13.62
2022-09-25T04:03:19.219Z,13.67
2022-09-25T04:04:19.174Z,13.58
2022-09-25T04:05:19.130Z,13.68
2022-09-25T04:06:19.083Z,13.58
2022-09-25T04:07:19.039Z,13.71
2022-09-25T04:08:18.996Z,13.58
2022-09-25T04:09:18.949Z,13.71
2022-09-25T04:10:18.909Z,13.65
2022-09-25T04:11:18.877Z,13.67
2022-09-25T04:12:18.818Z,13.73
2022-09-25T04:13:18.774Z,13.62
2022-09-25T04:14:18.728Z,13.62
2022-09-25T04:15:18.684Z,13.65
2022-09-25T04:16:18.717Z,13.62
2022-09-25T04:17:18.587Z,13.65
2022-09-25T04:18:18.552Z,13.57
2022-09-25T04:19:18.497Z,13.62
2022-09-25T04:20:18.461Z,13.62
2022-09-25T04:21:18.412Z,13.54
2022-09-25T04:22:18.368Z,13.52
2022-09-25T04:23:18.320Z,13.52
2022-09-25T04:24:18.282Z,13.57
2022-09-25T04:25:22.181Z,13.57
2022-09-25T04:26:18.185Z,13.57
2022-09-25T04:27:18.157Z,13.58
2022-09-25T04:28:18.095Z,13.52
2022-09-25T04:29:18.052Z,13.58
2022-09-25T04:30:18.005Z,13.50
2022-09-25T04:31:18.042Z,13.55
2022-09-25T04:33:17.879Z,13.52
2022-09-25T04:34:17.825Z,13.54
2022-09-25T04:35:17.788Z,13.57
2022-09-25T04:36:17.735Z,13.45
2022-09-25T04:37:17.691Z,13.49
2022-09-25T04:38:17.645Z,13.54
2022-09-25T04:39:17.601Z,13.43
2022-09-25T04:40:17.595Z,13.47
2022-09-25T04:41:17.513Z,13.45
2022-09-25T04:42:17.468Z,13.39
2022-09-25T04:43:17.451Z,13.43
2022-09-25T04:44:17.377Z,13.50
2022-09-25T04:45:17.336Z,13.46
2022-09-25T04:47:35.708Z,13.43
2022-09-25T04:48:35.951Z,13.40
2022-09-25T04:49:35.624Z,13.39
2022-09-25T04:50:35.571Z,13.39
2022-09-25T04:51:35.534Z,13.27
2022-09-25T04:52:35.482Z,13.37
2022-09-25T04:53:35.436Z,13.30
2022-09-25T04:54:35.394Z,13.37
2022-09-25T04:55:35.346Z,13.28
2022-09-25T04:56:35.306Z,13.33
2022-09-25T04:57:57.428Z,13.30
2022-09-25T04:58:35.234Z,13.24
2022-09-25T04:59:35.172Z,13.27
2022-09-25T05:00:35.127Z,13.28
2022-09-25T05:01:35.406Z,13.27
2022-09-25T05:02:35.187Z,13.28
2022-09-25T05:03:35.023Z,13.30
2022-09-25T05:04:34.957Z,13.24
2022-09-25T05:05:34.897Z,13.31
2022-09-25T05:06:34.851Z,13.19
2022-09-25T05:07:34.805Z,13.21
2022-09-25T05:08:34.767Z,13.13
2022-09-25T05:09:34.713Z,13.19
2022-09-25T05:10:34.670Z,13.20
2022-09-25T05:11:34.630Z,13.19
2022-09-25T05:12:34.583Z,13.20
2022-09-25T05:13:34.558Z,13.17
2022-09-25T05:14:34.513Z,13.16
2022-09-25T05:15:34.448Z,13.13
2022-09-25T05:16:34.460Z,13.03
2022-09-25T05:17:34.353Z,13.03
2022-09-25T05:18:34.309Z,13.11
2022-09-25T05:19:34.268Z,12.95
2022-09-25T05:20:34.220Z,13.08
2022-09-25T05:21:34.175Z,13.03
2022-09-25T05:22:34.129Z,12.94
2022-09-25T05:23:34.081Z,12.87
2022-09-25T05:24:34.043Z,12.93
2022-09-25T05:25:33.995Z,12.94
2022-09-25T05:26:33.953Z,12.93
2022-09-25T05:27:33.905Z,12.90
2022-09-25T05:28:33.862Z,12.86
2022-09-25T05:29:33.808Z,12.90
2022-09-25T05:30:33.786Z,12.93
2022-09-25T05:31:33.783Z,12.84
2022-09-25T05:32:33.679Z,12.94
2022-09-25T05:33:33.631Z,12.90
2022-09-25T05:34:33.585Z,12.86
2022-09-25T05:35:33.548Z,12.86
2022-09-25T05:36:33.495Z,12.90
2022-09-25T05:37:33.448Z,12.87
2022-09-25T05:38:33.406Z,12.78
2022-09-25T05:39:33.358Z,12.76
2022-09-25T05:40:33.377Z,12.81
2022-09-25T05:41:33.266Z,12.75
2022-09-25T05:42:33.224Z,12.75
2022-09-25T05:43:33.176Z,12.73
2022-09-25T05:44:33.132Z,12.76
2022-09-25T05:45:33.100Z,12.75
2022-09-25T05:46:33.133Z,12.72
2022-09-25T05:47:32.997Z,12.70
2022-09-25T05:48:32.957Z,12.75
2022-09-25T05:49:32.910Z,12.72
2022-09-25T05:50:32.860Z,12.70
2022-09-25T05:51:32.834Z,12.68
2022-09-25T05:52:32.780Z,12.65
2022-09-25T05:53:32.922Z,12.62
2022-09-25T05:54:32.680Z,12.65
2022-09-25T05:55:32.636Z,12.63
2022-09-25T05:56:32.589Z,12.53
2022-09-25T05:57:32.542Z,12.54
2022-09-25T05:58:32.496Z,12.61
2022-09-25T05:59:32.456Z,12.65
2022-09-25T06:00:32.413Z,12.61
2022-09-25T06:01:32.417Z,12.57
2022-09-25T06:02:32.442Z,12.57
2022-09-25T06:03:32.267Z,12.44
2022-09-25T06:04:32.229Z,12.47
2022-09-25T06:05:32.178Z,12.48
2022-09-25T06:06:32.135Z,12.48
2022-09-25T06:07:32.093Z,12.48
2022-09-25T06:08:32.051Z,12.48
2022-09-25T06:09:31.997Z,12.45
2022-09-25T06:10:31.957Z,12.44
2022-09-25T06:11:31.907Z,12.40
2022-09-25T06:12:31.863Z,12.36
2022-09-25T06:13:31.817Z,12.36
2022-09-25T06:14:31.770Z,12.30
2022-09-25T06:15:31.723Z,12.39
2022-09-25T06:16:31.750Z,12.33
2022-09-25T06:17:31.639Z,12.37
2022-09-25T06:18:31.710Z,12.29
2022-09-25T06:19:31.539Z,12.30
2022-09-25T06:20:31.545Z,12.32
2022-09-25T06:21:31.449Z,12.33
2022-09-25T06:22:31.407Z,12.30
2022-09-25T06:23:31.362Z,12.35
2022-09-25T06:24:31.317Z,12.28
2022-09-25T06:25:31.271Z,12.29
2022-09-25T06:26:31.227Z,12.32
2022-09-25T06:27:31.175Z,12.35
2022-09-25T06:28:31.136Z,12.35
2022-09-25T06:29:31.091Z,12.36
2022-09-25T06:30:31.047Z,12.40
2022-09-25T06:31:31.049Z,12.36
2022-09-25T06:32:30.956Z,12.37
2022-09-25T06:33:30.907Z,12.37
2022-09-25T06:34:30.965Z,12.30
2022-09-25T06:35:30.814Z,12.36
2022-09-25T06:36:30.768Z,12.43
2022-09-25T06:37:30.724Z,12.36
2022-09-25T06:38:30.676Z,12.43
2022-09-25T06:39:30.633Z,12.47
2022-09-25T06:40:30.611Z,12.51
2022-09-25T06:41:30.539Z,12.58
2022-09-25T06:42:30.504Z,12.63
2022-09-25T06:43:30.530Z,12.57
2022-09-25T06:44:30.405Z,12.58
2022-09-25T06:45:30.357Z,12.61
2022-09-25T06:46:30.370Z,12.62
2022-09-25T06:47:30.269Z,12.73
2022-09-25T06:48:30.249Z,12.72
2022-09-25T06:49:30.181Z,12.69
2022-09-25T06:50:30.153Z,12.78
2022-09-25T06:51:30.084Z,12.80
2022-09-25T06:52:30.040Z,12.86
2022-09-25T06:54:29.954Z,12.84
2022-09-25T06:55:29.905Z,12.87
2022-09-25T06:56:29.869Z,12.93
2022-09-25T06:57:29.814Z,12.90
2022-09-25T06:58:29.770Z,13.06
2022-09-25T06:59:29.724Z,13.02
2022-09-25T07:00:29.682Z,13.02
2022-09-25T07:01:29.725Z,13.02
2022-09-25T07:02:29.746Z,13.01
2022-09-25T07:03:29.548Z,13.01
2022-09-25T07:04:29.505Z,13.17
2022-09-25T07:05:29.452Z,13.11
2022-09-25T07:06:29.428Z,13.17
2022-09-25T07:07:29.362Z,13.17
2022-09-25T07:11:24.447Z,13.27
2022-09-25T07:12:24.398Z,13.28
2022-09-25T07:13:24.422Z,13.42
2022-09-25T07:14:24.315Z,13.42
2022-09-25T07:15:24.262Z,13.40
2022-09-25T07:16:24.293Z,13.46
2022-09-25T07:17:24.179Z,13.50
2022-09-25T07:18:24.132Z,13.49
2022-09-25T07:19:27.682Z,13.58
2022-09-25T07:20:24.111Z,13.55
2022-09-25T07:21:23.997Z,13.50
2022-09-25T07:22:23.967Z,13.62
2022-09-25T07:23:23.905Z,13.68
2022-09-25T07:24:23.860Z,13.60
2022-09-25T07:25:23.818Z,13.67
2022-09-25T07:27:23.729Z,13.71
2022-09-25T07:28:23.679Z,13.78
2022-09-25T07:29:23.638Z,13.83
2022-09-25T07:30:23.669Z,13.83
2022-09-25T07:31:23.611Z,13.87
2022-09-25T07:32:23.500Z,13.91
2022-09-25T07:33:23.455Z,13.97
2022-09-25T07:34:23.418Z,13.98
2022-09-25T07:35:23.368Z,14.08
2022-09-25T07:36:23.322Z,14.05
2022-09-25T07:38:23.255Z,14.16
2022-09-25T07:39:23.184Z,14.25
2022-09-25T17:58:40.233Z,15.54
2022-09-25T17:59:40.174Z,15.48
2022-09-25T18:00:40.127Z,15.52
2022-09-25T18:01:40.368Z,15.41
2022-09-25T18:02:40.098Z,15.36
2022-09-25T18:03:39.989Z,15.35
2022-09-25T18:04:39.951Z,15.36
2022-09-25T18:05:39.903Z,15.36
2022-09-25T18:06:39.860Z,15.32
2022-09-25T18:07:39.823Z,15.30
2022-09-25T18:08:39.763Z,15.30
2022-09-25T18:09:39.725Z,15.33
2022-09-25T18:10:39.679Z,15.19
2022-09-25T18:11:39.637Z,15.22
2022-09-25T18:12:39.585Z,15.17
2022-09-25T18:13:41.879Z,15.23
2022-09-25T18:14:39.516Z,15.22
2022-09-25T18:15:39.514Z,15.22
2022-09-25T18:16:39.405Z,15.10
2022-09-25T18:17:39.369Z,15.12
2022-09-25T18:18:39.322Z,15.14
2022-09-25T18:19:39.277Z,15.11
2022-09-25T18:20:39.232Z,15.10
2022-09-25T18:21:39.191Z,15.02
2022-09-25T18:22:39.141Z,15.04
2022-09-25T18:23:39.222Z,15.04
2022-09-25T18:24:39.057Z,14.99
2022-09-25T18:25:39.011Z,14.93
2022-09-25T18:26:38.960Z,14.96
2022-09-25T18:27:38.920Z,14.97
2022-09-25T18:28:38.867Z,14.90
2022-09-25T18:29:38.849Z,14.87
2022-09-25T18:30:38.893Z,14.85
2022-09-25T18:31:38.869Z,14.81
2022-09-25T18:32:38.700Z,14.90
2022-09-25T18:33:38.655Z,14.82
2022-09-25T18:34:38.607Z,14.70
2022-09-25T18:35:38.567Z,14.87
2022-09-25T18:36:38.528Z,14.78
2022-09-25T18:37:38.473Z,14.85
2022-09-25T18:38:38.431Z,14.78
2022-09-25T18:39:38.385Z,14.78
2022-09-25T18:40:38.497Z,14.66
2022-09-25T18:41:38.305Z,14.78
2022-09-25T18:42:38.250Z,14.73
2022-09-25T18:43:38.207Z,14.66
2022-09-25T18:44:42.223Z,14.63
2022-09-25T18:45:38.116Z,14.55
2022-09-25T18:46:38.275Z,14.62
2022-09-25T18:47:38.025Z,14.51
2022-09-25T18:48:37.984Z,14.55
2022-09-25T18:49:37.975Z,14.41
2022-09-25T18:50:37.888Z,14.53
2022-09-25T18:51:37.849Z,14.49
2022-09-25T18:52:37.808Z,14.52
2022-09-25T18:53:37.760Z,14.38
2022-09-25T18:54:37.718Z,14.48
2022-09-25T18:55:37.669Z,14.33
2022-09-25T18:56:37.627Z,14.41
2022-09-25T18:57:40.594Z,14.33
2022-09-25T18:58:37.534Z,14.36
2022-09-25T18:59:37.489Z,14.36
